Time;durP1;ratioP1;P1;durP2;ratioP2;P2;SDS_P1;SDS_P2;PMS_P1;PMS_P2;Temp;Humidity;BMP_temperature;BMP_pressure;BME280_temperature;BME280_humidity;BME280_pressure;Samples;Min_cycle;Max_cycle;Signal;HPM_P1;HPM_P2
2021/05/29 00:01:52;;;;;;;9.95;3.22;;;11.70;99.90;;;;;;4986965;28;20034;-75
2021/05/29 00:04:17;;;;;;;9.50;2.95;;;11.80;99.90;;;;;;4988377;28;20046;-76
2021/05/29 00:06:43;;;;;;;13.70;3.65;;;11.70;99.90;;;;;;4988694;28;20022;-73
2021/05/29 00:09:09;;;;;;;7.97;3.13;;;11.60;99.90;;;;;;4988526;28;20468;-73
2021/05/29 00:11:34;;;;;;;11.18;3.67;;;11.50;99.90;;;;;;4986537;28;20031;-75
2021/05/29 00:14:00;;;;;;;8.55;3.85;;;11.60;99.90;;;;;;4986907;28;20023;-74
2021/05/29 00:16:26;;;;;;;8.35;3.47;;;11.40;99.90;;;;;;4988210;28;20038;-74
2021/05/29 00:18:52;;;;;;;7.22;3.38;;;11.50;99.90;;;;;;4988391;28;20037;-72
2021/05/29 00:21:17;;;;;;;10.00;2.90;;;11.50;99.90;;;;;;4988300;28;20145;-72
2021/05/29 00:23:43;;;;;;;7.40;3.15;;;11.40;99.90;;;;;;4988139;28;20038;-75
2021/05/29 00:26:09;;;;;;;8.43;3.05;;;11.30;99.90;;;;;;4986972;28;20027;-75
2021/05/29 00:28:36;;;;;;;7.88;4.15;;;11.30;99.90;;;;;;4986959;28;20119;-74
2021/05/29 00:31:02;;;;;;;6.40;3.20;;;11.30;99.90;;;;;;4987679;28;20022;-75
2021/05/29 00:33:27;;;;;;;8.35;3.55;;;11.30;99.90;;;;;;4988180;28;20033;-74
2021/05/29 00:35:54;;;;;;;5.90;3.20;;;11.30;99.90;;;;;;4986850;28;20031;-74
2021/05/29 00:38:20;;;;;;;5.80;2.85;;;11.30;99.90;;;;;;4986526;28;20073;-72
2021/05/29 00:40:46;;;;;;;6.50;3.40;;;11.20;99.90;;;;;;4988028;28;20026;-73
2021/05/29 00:43:12;;;;;;;5.40;2.53;;;11.10;99.90;;;;;;4987854;28;20109;-74
2021/05/29 00:45:38;;;;;;;7.57;3.60;;;11.10;99.90;;;;;;4986239;28;20031;-73
2021/05/29 00:48:04;;;;;;;9.27;3.72;;;11.10;99.90;;;;;;4988050;28;20116;-73
2021/05/29 00:50:31;;;;;;;4.78;3.00;;;11.00;99.90;;;;;;4987483;28;20027;-73
2021/05/29 00:52:57;;;;;;;7.05;3.70;;;10.90;99.90;;;;;;4987819;28;20047;-73
2021/05/29 00:55:23;;;;;;;8.02;3.40;;;10.90;99.90;;;;;;4987828;28;20033;-74
2021/05/29 00:57:51;;;;;;;7.13;3.78;;;10.90;99.90;;;;;;4986983;28;20059;-75
2021/05/29 01:00:19;;;;;;;10.93;4.13;;;10.90;99.90;;;;;;4987507;28;20471;-73
2021/05/29 01:02:46;;;;;;;8.38;3.78;;;10.90;99.90;;;;;;4987763;28;20054;-74
2021/05/29 01:05:13;;;;;;;5.85;3.63;;;10.90;99.90;;;;;;4987427;28;20042;-73
2021/05/29 01:07:39;;;;;;;8.70;3.55;;;10.90;99.90;;;;;;4986335;28;20043;-73
2021/05/29 01:10:07;;;;;;;6.75;3.33;;;10.90;99.90;;;;;;4987795;28;20058;-74
2021/05/29 01:12:34;;;;;;;7.63;4.28;;;10.90;99.90;;;;;;4985819;28;20027;-74
2021/05/29 01:15:00;;;;;;;8.70;4.07;;;10.90;99.90;;;;;;4987332;28;20042;-73
2021/05/29 01:17:28;;;;;;;7.13;3.95;;;10.90;99.90;;;;;;4987347;28;20038;-73
2021/05/29 01:19:54;;;;;;;8.20;4.55;;;11.00;99.90;;;;;;4987088;28;20454;-74
2021/05/29 01:22:54;;;;;;;8.60;4.78;;;11.00;99.90;;;;;;4987295;28;20058;-74
2021/05/29 01:25:29;;;;;;;8.43;4.55;;;11.00;99.90;;;;;;4964945;28;20106;-73
2021/05/29 01:28:11;;;;;;;9.38;4.90;;;11.00;99.90;;;;;;4986860;28;20047;-75
2021/05/29 01:30:44;;;;;;;8.50;3.83;;;10.90;99.90;;;;;;4987221;28;20039;-73
2021/05/29 01:33:15;;;;;;;8.80;4.85;;;11.00;99.90;;;;;;4986902;28;20034;-71
2021/05/29 01:35:43;;;;;;;9.48;4.10;;;10.90;99.90;;;;;;4987359;28;20046;-74
2021/05/29 01:38:10;;;;;;;8.82;3.53;;;10.90;99.90;;;;;;4985977;28;20027;-75
2021/05/29 01:40:36;;;;;;;8.63;3.90;;;10.90;99.90;;;;;;4985570;28;20026;-74
2021/05/29 01:43:02;;;;;;;7.50;3.92;;;10.90;99.90;;;;;;4987026;28;20034;-76
2021/05/29 01:45:29;;;;;;;3.63;2.00;;;10.80;99.90;;;;;;4985700;28;20094;-73
2021/05/29 01:47:55;;;;;;;5.90;2.65;;;10.90;99.90;;;;;;4986722;28;20053;-74
2021/05/29 01:50:21;;;;;;;8.52;3.38;;;10.90;99.90;;;;;;4986633;28;20034;-74
2021/05/29 01:52:55;;;;;;;5.97;3.08;;;10.90;99.90;;;;;;4985831;28;20023;-74
2021/05/29 01:55:24;;;;;;;4.38;2.50;;;10.90;99.90;;;;;;4984829;28;20026;-72
2021/05/29 01:57:51;;;;;;;9.82;2.95;;;10.90;99.90;;;;;;4985074;28;20050;-72
2021/05/29 02:00:18;;;;;;;6.50;3.28;;;10.90;99.90;;;;;;4986292;28;20408;-74
2021/05/29 02:02:44;;;;;;;7.00;3.00;;;10.90;99.90;;;;;;4986423;28;20653;-72
2021/05/29 02:05:17;;;;;;;6.18;2.72;;;10.80;99.90;;;;;;4986543;28;20090;-75
2021/05/29 02:07:43;;;;;;;6.03;2.33;;;10.80;99.90;;;;;;4986348;28;20035;-76
2021/05/29 02:10:12;;;;;;;8.32;2.58;;;10.80;99.90;;;;;;4986171;28;20031;-76
2021/05/29 02:12:46;;;;;;;5.13;2.58;;;10.70;99.90;;;;;;4986444;28;20423;-76
2021/05/29 02:15:14;;;;;;;7.35;2.58;;;10.70;99.90;;;;;;4985240;28;20041;-76
2021/05/29 02:17:41;;;;;;;8.05;3.17;;;10.70;99.90;;;;;;4986130;28;20031;-76
2021/05/29 02:20:07;;;;;;;5.97;2.60;;;10.70;99.90;;;;;;4985210;28;20681;-75
2021/05/29 02:22:33;;;;;;;5.70;2.88;;;10.70;99.90;;;;;;4986195;28;20023;-73
2021/05/29 02:24:59;;;;;;;5.15;2.60;;;10.70;99.90;;;;;;4986026;28;20053;-76
2021/05/29 02:27:25;;;;;;;7.68;2.83;;;10.70;99.90;;;;;;4986288;28;20030;-75
2021/05/29 02:29:50;;;;;;;4.13;2.30;;;10.70;99.90;;;;;;4985668;28;20081;-74
2021/05/29 02:32:16;;;;;;;6.85;3.13;;;10.70;99.90;;;;;;4985975;28;20037;-76
2021/05/29 02:34:42;;;;;;;14.63;2.70;;;10.60;99.90;;;;;;4984598;28;20034;-76
2021/05/29 02:37:07;;;;;;;8.32;2.60;;;10.60;99.90;;;;;;4985907;28;20035;-75
2021/05/29 02:39:33;;;;;;;9.18;3.58;;;10.60;99.90;;;;;;4986018;28;20040;-75
2021/05/29 02:41:58;;;;;;;6.57;2.70;;;10.60;99.90;;;;;;4985735;28;20061;-74
2021/05/29 02:44:25;;;;;;;8.48;3.85;;;10.60;99.90;;;;;;4984172;28;20050;-74
2021/05/29 02:46:51;;;;;;;10.82;5.10;;;10.60;99.90;;;;;;4985725;28;20042;-76
2021/05/29 02:49:17;;;;;;;8.02;3.47;;;10.60;99.90;;;;;;4985961;28;20030;-75
2021/05/29 02:51:43;;;;;;;9.00;4.30;;;10.60;99.90;;;;;;4985565;28;20023;-75
2021/05/29 02:54:08;;;;;;;6.32;3.10;;;10.70;99.90;;;;;;4984808;28;20051;-75
2021/05/29 02:56:34;;;;;;;9.15;3.13;;;10.60;99.90;;;;;;4983795;28;20046;-74
2021/05/29 02:58:59;;;;;;;8.52;3.95;;;10.60;99.90;;;;;;4984290;28;20077;-74
2021/05/29 03:01:25;;;;;;;7.13;3.25;;;10.60;99.90;;;;;;4984301;28;20110;-74
2021/05/29 03:03:50;;;;;;;9.45;3.83;;;10.60;99.90;;;;;;4985199;28;20103;-75
2021/05/29 03:06:16;;;;;;;6.53;3.55;;;10.60;99.90;;;;;;4984105;28;20031;-74
2021/05/29 03:08:42;;;;;;;12.82;5.00;;;10.60;99.90;;;;;;4985794;28;20027;-74
2021/05/29 03:11:10;;;;;;;11.13;5.30;;;10.60;99.90;;;;;;4985337;28;20062;-74
2021/05/29 03:13:36;;;;;;;13.40;4.55;;;10.50;99.90;;;;;;4985456;28;20023;-74
2021/05/29 03:16:01;;;;;;;7.60;4.15;;;10.60;99.90;;;;;;4985482;28;20030;-74
2021/05/29 03:18:28;;;;;;;9.98;4.15;;;10.60;99.90;;;;;;4983728;28;20031;-74
2021/05/29 03:20:54;;;;;;;8.48;4.15;;;10.60;99.90;;;;;;4984169;28;20038;-73
2021/05/29 03:23:20;;;;;;;8.57;4.80;;;10.60;99.90;;;;;;4985356;28;20043;-74
2021/05/29 03:25:45;;;;;;;5.82;3.58;;;10.60;99.90;;;;;;4985285;28;20087;-75
2021/05/29 03:28:11;;;;;;;9.48;4.00;;;10.60;99.90;;;;;;4985517;28;20034;-74
2021/05/29 03:30:37;;;;;;;8.15;3.85;;;10.60;99.90;;;;;;4984179;28;20053;-75
2021/05/29 03:33:02;;;;;;;10.18;4.10;;;10.60;99.90;;;;;;4983716;28;20045;-74
2021/05/29 03:35:28;;;;;;;6.85;3.92;;;10.60;99.90;;;;;;4985507;28;20535;-74
2021/05/29 03:37:55;;;;;;;9.80;4.00;;;10.50;99.90;;;;;;4985093;28;20031;-75
2021/05/29 03:40:21;;;;;;;8.02;4.22;;;10.60;99.90;;;;;;4983727;28;20125;-75
2021/05/29 03:42:47;;;;;;;7.03;3.35;;;10.50;99.90;;;;;;4984163;28;20077;-74
2021/05/29 03:45:14;;;;;;;11.00;4.03;;;10.60;99.90;;;;;;4985075;28;20067;-75
2021/05/29 03:47:45;;;;;;;7.82;3.30;;;10.60;99.90;;;;;;4985414;28;20031;-74
2021/05/29 03:50:13;;;;;;;16.52;4.60;;;10.60;99.90;;;;;;4989469;28;20042;-74
2021/05/29 03:52:41;;;;;;;11.63;5.43;;;10.50;99.90;;;;;;4987923;28;20034;-73
2021/05/29 03:55:08;;;;;;;5.78;3.25;;;10.50;99.90;;;;;;4988737;28;20031;-75
2021/05/29 03:57:34;;;;;;;8.50;4.55;;;10.50;99.90;;;;;;4986936;28;20167;-74
2021/05/29 03:59:59;;;;;;;11.80;4.20;;;10.50;99.90;;;;;;4988755;28;20102;-74
2021/05/29 04:02:25;;;;;;;10.98;5.80;;;10.50;99.90;;;;;;4987272;28;20497;-73
2021/05/29 04:04:51;;;;;;;8.13;4.13;;;10.50;99.90;;;;;;4988688;28;20038;-75
2021/05/29 04:07:17;;;;;;;12.65;5.00;;;10.50;99.90;;;;;;4986968;28;20475;-74
2021/05/29 04:09:42;;;;;;;8.25;3.65;;;10.50;99.90;;;;;;4988815;28;20143;-76
2021/05/29 04:12:09;;;;;;;9.07;4.50;;;10.50;99.90;;;;;;4987280;28;20033;-74
2021/05/29 04:14:34;;;;;;;8.73;4.80;;;10.50;99.90;;;;;;4988583;28;20034;-74
2021/05/29 04:17:01;;;;;;;8.88;4.70;;;10.60;99.90;;;;;;4988169;28;20027;-74
2021/05/29 04:19:26;;;;;;;8.93;4.38;;;10.40;99.90;;;;;;4988346;28;20049;-74
2021/05/29 04:21:52;;;;;;;12.80;4.65;;;10.40;99.90;;;;;;4986778;28;20535;-74
2021/05/29 04:24:18;;;;;;;9.07;4.65;;;10.50;99.90;;;;;;4987147;28;20043;-74
2021/05/29 04:26:44;;;;;;;9.77;3.92;;;10.50;99.90;;;;;;4988481;28;20031;-74
2021/05/29 04:29:09;;;;;;;5.85;3.70;;;10.50;99.90;;;;;;4986684;28;20027;-74
2021/05/29 04:31:35;;;;;;;11.18;4.78;;;10.50;99.90;;;;;;4988150;28;20034;-74
2021/05/29 04:34:01;;;;;;;8.90;4.68;;;10.50;99.90;;;;;;4986924;28;20030;-74
2021/05/29 04:36:26;;;;;;;9.13;4.05;;;10.50;99.90;;;;;;4986686;28;20019;-73
2021/05/29 04:38:52;;;;;;;9.30;4.25;;;10.50;99.90;;;;;;4988213;28;20038;-75
2021/05/29 04:41:20;;;;;;;7.05;3.92;;;10.40;99.90;;;;;;4987911;28;20078;-75
2021/05/29 04:43:46;;;;;;;7.65;3.30;;;10.50;99.90;;;;;;4987757;28;20043;-74
2021/05/29 04:46:11;;;;;;;6.03;3.60;;;10.50;99.90;;;;;;4988255;28;20107;-71
2021/05/29 04:48:37;;;;;;;8.27;4.15;;;10.50;99.90;;;;;;4986833;28;20427;-72
2021/05/29 04:51:13;;;;;;;11.18;3.90;;;10.50;99.90;;;;;;4986443;28;20037;-73
2021/05/29 04:53:48;;;;;;;6.72;3.28;;;10.40;99.90;;;;;;4988141;28;20042;-75
2021/05/29 04:56:16;;;;;;;16.23;3.42;;;10.40;99.90;;;;;;4987058;28;20051;-74
2021/05/29 04:58:42;;;;;;;7.85;3.28;;;10.40;99.90;;;;;;4987601;28;20031;-75
2021/05/29 05:01:09;;;;;;;6.38;2.85;;;10.50;99.90;;;;;;4988005;28;20022;-75
2021/05/29 05:03:36;;;;;;;8.65;3.70;;;10.50;99.90;;;;;;4987332;28;20042;-74
2021/05/29 05:06:02;;;;;;;7.00;3.28;;;10.50;99.90;;;;;;4986299;28;20027;-75
2021/05/29 05:08:27;;;;;;;9.52;3.50;;;10.50;99.90;;;;;;4992202;28;20107;-76
2021/05/29 05:10:55;;;;;;;7.68;3.42;;;10.50;99.90;;;;;;5005339;28;20022;-77
2021/05/29 05:13:22;;;;;;;12.13;4.85;;;10.50;99.90;;;;;;4995684;28;20109;-77
2021/05/29 05:15:49;;;;;;;9.13;4.35;;;10.60;99.90;;;;;;4986355;28;20027;-75
2021/05/29 05:18:14;;;;;;;11.15;5.05;;;10.70;99.90;;;;;;5004743;28;20026;-76
2021/05/29 05:20:41;;;;;;;9.68;4.43;;;10.70;99.90;;;;;;5004595;28;20089;-77
2021/05/29 05:23:07;;;;;;;8.90;5.32;;;10.70;99.90;;;;;;4993589;28;20030;-73
2021/05/29 05:25:33;;;;;;;13.32;5.65;;;10.70;99.90;;;;;;5006511;28;20037;-77
2021/05/29 05:27:59;;;;;;;8.70;4.78;;;10.70;99.90;;;;;;5005309;28;20029;-77
2021/05/29 05:30:27;;;;;;;11.30;4.85;;;10.70;99.90;;;;;;4996786;28;20031;-76
2021/05/29 05:32:53;;;;;;;12.77;4.70;;;10.70;99.90;;;;;;4986626;28;20030;-76
2021/05/29 05:35:21;;;;;;;8.38;4.45;;;10.70;99.90;;;;;;4986540;28;20026;-73
2021/05/29 05:37:47;;;;;;;9.85;4.95;;;10.70;99.90;;;;;;5000626;28;20041;-75
2021/05/29 05:40:13;;;;;;;10.43;5.00;;;10.70;99.90;;;;;;4993088;28;20114;-76
2021/05/29 05:42:39;;;;;;;10.45;5.05;;;10.70;99.90;;;;;;4986628;28;20031;-74
2021/05/29 05:45:07;;;;;;;10.82;5.13;;;10.70;99.90;;;;;;4986269;28;20042;-71
2021/05/29 05:47:33;;;;;;;8.77;3.97;;;10.70;99.90;;;;;;5006131;28;21138;-73
2021/05/29 05:49:59;;;;;;;12.18;3.65;;;10.70;99.90;;;;;;5006348;28;20038;-74
2021/05/29 05:52:25;;;;;;;7.53;4.45;;;10.70;99.90;;;;;;5006056;28;20113;-72
2021/05/29 05:54:50;;;;;;;8.88;4.43;;;10.60;99.90;;;;;;5006390;28;20061;-72
2021/05/29 05:57:16;;;;;;;8.48;4.35;;;10.60;99.90;;;;;;5005209;28;20051;-76
2021/05/29 05:59:42;;;;;;;11.65;4.13;;;10.60;99.90;;;;;;5005786;28;20041;-76
2021/05/29 06:02:08;;;;;;;11.40;5.05;;;10.60;99.90;;;;;;5006293;28;20463;-74
2021/05/29 06:04:34;;;;;;;11.10;4.93;;;10.70;99.90;;;;;;5004597;28;20472;-73
2021/05/29 06:07:00;;;;;;;12.25;4.43;;;10.60;99.90;;;;;;5005280;28;20067;-75
2021/05/29 06:09:28;;;;;;;10.73;4.53;;;10.80;99.90;;;;;;5005729;28;20033;-76
2021/05/29 06:11:53;;;;;;;13.23;6.05;;;10.70;99.90;;;;;;5005712;28;20026;-75
2021/05/29 06:19:48;;;;;;;15.70;5.80;;;10.70;99.90;;;;;;5005860;28;19913;-77
2021/05/29 06:22:14;;;;;;;8.57;4.65;;;10.80;99.90;;;;;;5005496;28;20027;-76
2021/05/29 06:24:40;;;;;;;12.57;5.50;;;10.80;99.90;;;;;;4999820;28;20050;-76
2021/05/29 06:27:07;;;;;;;16.33;6.05;;;10.90;99.90;;;;;;4991389;28;20193;-76
2021/05/29 06:29:33;;;;;;;11.63;5.53;;;10.90;99.90;;;;;;5001092;28;20428;-76
2021/05/29 06:31:59;;;;;;;16.08;5.82;;;11.00;99.90;;;;;;4995437;28;20023;-77
2021/05/29 06:34:24;;;;;;;11.52;5.45;;;11.00;99.90;;;;;;5004069;28;20027;-75
2021/05/29 06:36:51;;;;;;;7.45;3.63;;;11.10;99.90;;;;;;4998679;28;20070;-76
2021/05/29 06:39:17;;;;;;;9.68;3.97;;;11.00;99.90;;;;;;5002002;28;20026;-73
2021/05/29 06:41:43;;;;;;;7.97;3.97;;;11.00;99.90;;;;;;5005276;28;20490;-76
2021/05/29 06:44:11;;;;;;;8.23;3.97;;;11.00;99.90;;;;;;5005464;28;20146;-76
2021/05/29 06:46:38;;;;;;;6.47;3.53;;;10.90;99.90;;;;;;5005590;28;20085;-74
2021/05/29 06:49:04;;;;;;;7.57;3.70;;;10.80;99.90;;;;;;5005142;28;20037;-76
2021/05/29 06:51:46;;;;;;;6.10;3.70;;;10.80;99.90;;;;;;5005185;28;20030;-76
2021/05/29 06:59:45;;;;;;;11.55;4.28;;;10.90;99.90;;;;;;4985662;28;20054;-75
2021/05/29 07:02:10;;;;;;;8.57;4.22;;;11.00;99.90;;;;;;4986553;28;20039;-76
2021/05/29 07:04:36;;;;;;;9.60;4.53;;;11.00;99.90;;;;;;5003729;28;20129;-76
2021/05/29 07:07:02;;;;;;;11.73;4.45;;;11.00;99.90;;;;;;5005247;28;20023;-75
2021/05/29 07:09:28;;;;;;;8.68;4.88;;;11.10;99.90;;;;;;5005123;28;20057;-75
2021/05/29 07:11:54;;;;;;;9.60;4.28;;;11.20;99.90;;;;;;5003464;28;20030;-78
2021/05/29 07:14:19;;;;;;;7.43;3.72;;;11.20;99.90;;;;;;5003520;28;20030;-74
2021/05/29 07:16:47;;;;;;;9.65;4.15;;;11.30;99.90;;;;;;5001646;28;20023;-74
2021/05/29 07:19:13;;;;;;;11.23;4.15;;;11.30;99.90;;;;;;4985544;28;20026;-73
2021/05/29 07:21:39;;;;;;;6.03;4.10;;;11.20;99.90;;;;;;4986570;28;20026;-72
2021/05/29 07:24:05;;;;;;;7.80;4.35;;;11.20;99.90;;;;;;4990023;28;20038;-76
2021/05/29 07:26:32;;;;;;;7.82;3.92;;;11.20;99.90;;;;;;5003918;28;20026;-74
2021/05/29 07:28:57;;;;;;;5.97;3.60;;;11.20;99.90;;;;;;4999059;28;20030;-76
2021/05/29 07:31:23;;;;;;;11.43;4.13;;;11.20;99.90;;;;;;5007300;28;20030;-77
2021/05/29 07:33:52;;;;;;;9.23;4.53;;;11.30;99.90;;;;;;5007205;28;20034;-77
2021/05/29 07:36:18;;;;;;;8.52;4.00;;;11.30;99.90;;;;;;5007503;28;20022;-76
2021/05/29 07:38:44;;;;;;;11.55;3.72;;;11.30;99.90;;;;;;5007093;28;20071;-75
2021/05/29 07:41:10;;;;;;;11.63;5.03;;;11.20;99.90;;;;;;5005510;28;20114;-75
2021/05/29 07:43:35;;;;;;;9.45;4.45;;;11.20;99.90;;;;;;5006726;28;20046;-73
2021/05/29 07:46:01;;;;;;;9.70;4.32;;;11.20;99.90;;;;;;5007495;28;20053;-72
2021/05/29 07:48:26;;;;;;;22.33;6.10;;;11.20;99.90;;;;;;5007093;28;20026;-75
2021/05/29 07:51:03;;;;;;;10.57;5.25;;;11.20;99.90;;;;;;5006672;28;20042;-75
2021/05/29 07:53:37;;;;;;;6.05;3.30;;;11.20;99.90;;;;;;5007394;28;20022;-74
2021/05/29 07:56:06;;;;;;;6.18;3.22;;;11.30;99.90;;;;;;5007758;28;20053;-75
2021/05/29 07:58:32;;;;;;;5.57;2.97;;;11.30;99.90;;;;;;5006108;28;20041;-75
2021/05/29 08:00:58;;;;;;;5.68;3.65;;;11.50;99.90;;;;;;5005999;28;20026;-75
2021/05/29 08:03:26;;;;;;;10.73;5.30;;;11.50;99.90;;;;;;5006393;28;20033;-76
2021/05/29 08:05:54;;;;;;;12.30;5.75;;;11.60;99.90;;;;;;5005183;28;20026;-76
2021/05/29 08:08:24;;;;;;;13.70;6.50;;;11.70;99.90;;;;;;4997212;28;20105;-75
2021/05/29 08:10:52;;;;;;;13.25;5.85;;;11.70;99.90;;;;;;4995891;28;20101;-76
2021/05/29 08:13:19;;;;;;;12.45;5.03;;;11.70;99.90;;;;;;5004543;28;20034;-75
2021/05/29 08:15:47;;;;;;;12.68;5.68;;;11.90;99.90;;;;;;4988754;28;20027;-76
2021/05/29 08:18:16;;;;;;;8.63;4.30;;;11.90;99.90;;;;;;5003094;28;20387;-76
2021/05/29 08:20:46;;;;;;;12.38;5.82;;;11.90;99.90;;;;;;4987215;28;20058;-75
2021/05/29 08:23:12;;;;;;;11.45;5.30;;;11.90;99.90;;;;;;4988077;28;20018;-77
2021/05/29 08:25:38;;;;;;;9.20;4.65;;;11.90;99.90;;;;;;5000066;28;20045;-75
2021/05/29 08:28:04;;;;;;;9.93;4.57;;;11.90;99.90;;;;;;5007574;28;20031;-74
2021/05/29 08:30:30;;;;;;;7.18;3.95;;;11.90;99.90;;;;;;5007911;28;20026;-75
2021/05/29 08:32:56;;;;;;;15.77;4.07;;;11.80;99.90;;;;;;5006983;28;20022;-73
2021/05/29 08:35:23;;;;;;;6.25;3.67;;;11.80;99.90;;;;;;5000804;28;20030;-76
2021/05/29 08:37:49;;;;;;;5.45;3.08;;;11.80;99.90;;;;;;4994678;28;20035;-76
2021/05/29 08:40:18;;;;;;;9.00;3.67;;;11.80;99.90;;;;;;4999939;28;20046;-75
2021/05/29 08:42:45;;;;;;;4.82;2.80;;;11.80;99.90;;;;;;4991241;28;20034;-74
2021/05/29 08:45:12;;;;;;;13.68;2.92;;;11.90;99.90;;;;;;4986906;28;20042;-75
2021/05/29 08:47:39;;;;;;;5.63;3.00;;;11.90;99.90;;;;;;5007796;28;20085;-73
2021/05/29 08:50:06;;;;;;;4.97;2.78;;;11.90;99.90;;;;;;5005713;28;20030;-74
2021/05/29 08:52:36;;;;;;;5.30;2.60;;;12.00;99.90;;;;;;5006483;28;20033;-74
2021/05/29 08:55:10;;;;;;;6.05;3.05;;;12.10;99.90;;;;;;5004947;28;20042;-75
2021/05/29 08:57:37;;;;;;;9.75;3.78;;;12.20;99.90;;;;;;5006760;28;20142;-74
2021/05/29 09:00:12;;;;;;;4.90;3.15;;;12.20;99.90;;;;;;5006693;28;20403;-74
2021/05/29 09:03:06;;;;;;;4.75;2.25;;;12.20;99.90;;;;;;5002197;28;20058;-76
2021/05/29 09:05:50;;;;;;;5.45;2.80;;;12.20;99.90;;;;;;4987393;28;20042;-74
2021/05/29 09:08:18;;;;;;;3.17;1.83;;;12.20;99.90;;;;;;4987574;28;20384;-74
2021/05/29 09:10:50;;;;;;;6.75;2.97;;;12.20;99.90;;;;;;4986303;28;20045;-75
2021/05/29 09:13:18;;;;;;;3.83;1.90;;;12.30;99.90;;;;;;4986679;28;20027;-74
2021/05/29 09:15:50;;;;;;;8.98;3.08;;;12.30;99.90;;;;;;4985672;28;20102;-74
2021/05/29 09:18:36;;;;;;;4.40;2.63;;;12.30;99.90;;;;;;4986365;28;20077;-75
2021/05/29 09:21:20;;;;;;;4.90;2.75;;;12.50;99.90;;;;;;4987048;28;20034;-76
2021/05/29 09:23:51;;;;;;;4.43;2.22;;;12.60;99.90;;;;;;4986056;28;20498;-73
2021/05/29 09:26:21;;;;;;;7.57;2.70;;;12.60;99.90;;;;;;4987007;28;20027;-74
2021/05/29 09:28:48;;;;;;;4.97;2.58;;;12.60;99.90;;;;;;4987088;28;20109;-75
2021/05/29 09:31:14;;;;;;;4.50;2.47;;;12.60;99.90;;;;;;4988942;28;20027;-73
2021/05/29 09:33:42;;;;;;;3.78;2.40;;;12.60;99.90;;;;;;4984821;28;20030;-74
2021/05/29 09:36:12;;;;;;;5.45;2.47;;;12.70;99.90;;;;;;4986373;28;20117;-74
2021/05/29 09:38:47;;;;;;;3.45;1.65;;;12.70;99.90;;;;;;4997120;28;20022;-72
2021/05/29 09:41:30;;;;;;;7.10;2.28;;;12.80;99.90;;;;;;5006139;28;20023;-75
2021/05/29 09:44:05;;;;;;;5.72;2.22;;;12.80;99.90;;;;;;5006071;28;20503;-75
2021/05/29 09:46:51;;;;;;;3.85;2.47;;;12.90;99.90;;;;;;5005440;28;20034;-75
2021/05/29 09:49:17;;;;;;;3.80;2.15;;;13.00;99.90;;;;;;4998558;28;20035;-76
2021/05/29 09:51:43;;;;;;;7.05;2.78;;;13.10;99.90;;;;;;4986297;28;20031;-75
2021/05/29 09:54:12;;;;;;;4.15;2.08;;;13.10;99.90;;;;;;5001117;28;20059;-74
2021/05/29 09:56:42;;;;;;;5.72;2.35;;;13.10;99.90;;;;;;4985187;28;20061;-71
2021/05/29 09:59:10;;;;;;;6.45;3.20;;;13.10;99.90;;;;;;4986263;28;20042;-73
2021/05/29 10:01:46;;;;;;;7.72;2.70;;;13.10;99.90;;;;;;4986081;28;20031;-74
2021/05/29 10:04:26;;;;;;;8.43;2.75;;;13.10;99.90;;;;;;4986723;28;20039;-74
2021/05/29 10:07:00;;;;;;;4.68;2.60;;;13.00;99.90;;;;;;5000665;28;20037;-74
2021/05/29 10:09:27;;;;;;;3.53;2.13;;;13.10;99.90;;;;;;5001167;28;20026;-75
2021/05/29 10:11:54;;;;;;;4.45;2.20;;;13.10;99.90;;;;;;4985811;28;20046;-75
2021/05/29 10:14:20;;;;;;;2.42;1.73;;;13.20;99.90;;;;;;4985545;28;20035;-73
2021/05/29 10:16:48;;;;;;;3.67;2.25;;;13.20;99.90;;;;;;4993854;28;20038;-71
2021/05/29 10:19:15;;;;;;;6.82;2.47;;;13.20;99.90;;;;;;4990259;28;20110;-74
2021/05/29 10:21:41;;;;;;;8.75;3.00;;;13.20;99.90;;;;;;5000890;28;20026;-74
2021/05/29 10:24:07;;;;;;;13.50;2.72;;;13.20;99.90;;;;;;5004902;28;20052;-74
2021/05/29 10:26:36;;;;;;;7.32;3.88;;;13.20;99.90;;;;;;5005667;28;20086;-74
2021/05/29 10:29:02;;;;;;;17.15;4.40;;;13.30;99.90;;;;;;5003634;28;20080;-74
2021/05/29 10:31:38;;;;;;;8.43;4.40;;;13.30;99.90;;;;;;5005539;28;20030;-73
2021/05/29 10:34:06;;;;;;;8.25;4.03;;;13.30;99.90;;;;;;5004890;28;20045;-74
2021/05/29 10:36:37;;;;;;;8.38;4.22;;;13.20;99.90;;;;;;5004058;28;20033;-74
2021/05/29 10:39:09;;;;;;;8.23;3.47;;;13.20;99.90;;;;;;5000726;28;20031;-74
2021/05/29 10:42:00;;;;;;;6.47;2.80;;;13.30;99.90;;;;;;4985821;28;20146;-75
2021/05/29 10:44:40;;;;;;;6.65;2.72;;;13.30;99.90;;;;;;4984247;28;20054;-74
2021/05/29 10:47:17;;;;;;;7.63;3.05;;;13.40;99.90;;;;;;4997033;28;20511;-74
2021/05/29 10:52:36;;;;;;;3.80;2.03;;;13.70;99.90;;;;;;5005353;28;20034;-74
2021/05/29 10:55:08;;;;;;;7.55;2.90;;;13.70;99.90;;;;;;5003661;28;20038;-75
2021/05/29 10:58:05;;;;;;;6.55;2.75;;;13.80;99.90;;;;;;5004287;28;20064;-73
2021/05/29 11:03:24;;;;;;;7.70;3.38;;;13.80;99.90;;;;;;5004831;28;20058;-74
2021/05/29 11:05:56;;;;;;;6.38;3.03;;;13.80;99.90;;;;;;5004987;28;20132;-74
2021/05/29 11:08:44;;;;;;;6.65;3.03;;;13.70;99.90;;;;;;5005120;28;20018;-73
2021/05/29 11:11:35;;;;;;;6.47;2.60;;;13.60;99.90;;;;;;5003624;28;20026;-74
2021/05/29 11:14:06;;;;;;;3.83;2.53;;;13.60;99.90;;;;;;4989848;28;20163;-74
2021/05/29 11:17:08;;;;;;;5.30;2.60;;;13.60;99.90;;;;;;4985564;28;20027;-72
2021/05/29 11:19:35;;;;;;;8.52;2.78;;;13.60;99.90;;;;;;4974070;28;20063;-72
2021/05/29 11:22:07;;;;;;;3.33;2.63;;;13.60;99.90;;;;;;4984107;28;20476;-71
2021/05/29 11:24:48;;;;;;;6.82;3.67;;;13.70;99.90;;;;;;5000093;28;20065;-74
2021/05/29 11:27:21;;;;;;;11.07;4.15;;;13.70;99.90;;;;;;4985660;28;20463;-75
2021/05/29 11:29:54;;;;;;;7.30;3.72;;;13.70;99.90;;;;;;5000253;28;20101;-76
2021/05/29 11:35:27;;;;;;;4.93;2.85;;;13.90;99.90;;;;;;4985385;28;20410;-75
2021/05/29 11:38:06;;;;;;;5.35;3.00;;;14.10;99.90;;;;;;4999641;28;20035;-74
2021/05/29 11:40:44;;;;;;;5.47;3.30;;;14.10;99.90;;;;;;4984116;28;20031;-75
2021/05/29 11:43:12;;;;;;;4.95;2.47;;;14.10;99.90;;;;;;4984251;28;20048;-74
2021/05/29 11:45:39;;;;;;;7.13;3.67;;;14.10;99.90;;;;;;4984843;28;20102;-72
2021/05/29 11:48:06;;;;;;;9.23;3.47;;;14.10;99.90;;;;;;4985312;28;20023;-73
2021/05/29 11:50:33;;;;;;;8.43;3.75;;;14.10;99.90;;;;;;4984065;28;20038;-75
2021/05/29 11:52:59;;;;;;;10.15;3.70;;;14.10;99.90;;;;;;4984778;28;20054;-72
2021/05/29 11:55:25;;;;;;;7.13;3.33;;;14.10;99.90;;;;;;4985075;28;20387;-72
2021/05/29 11:58:01;;;;;;;7.13;3.60;;;14.00;99.90;;;;;;4984269;28;20099;-72
2021/05/29 12:00:28;;;;;;;7.82;3.40;;;14.00;99.90;;;;;;4985237;28;20110;-74
2021/05/29 12:02:54;;;;;;;5.22;2.78;;;14.00;99.90;;;;;;4983986;28;20122;-73
2021/05/29 12:05:20;;;;;;;9.48;4.22;;;14.10;99.90;;;;;;4984685;28;20042;-74
2021/05/29 12:08:03;;;;;;;4.90;3.20;;;14.30;99.90;;;;;;4985111;28;20033;-72
2021/05/29 12:10:49;;;;;;;7.03;3.50;;;14.30;99.90;;;;;;4988587;28;20495;-72
2021/05/29 12:13:29;;;;;;;9.25;4.15;;;14.30;99.90;;;;;;4988247;28;20027;-74
2021/05/29 12:16:00;;;;;;;7.03;3.75;;;14.30;99.90;;;;;;4988522;28;20023;-75
2021/05/29 12:18:37;;;;;;;7.50;3.28;;;14.40;99.90;;;;;;4988364;28;20162;-73
2021/05/29 12:21:03;;;;;;;5.93;3.35;;;14.70;99.90;;;;;;4987920;28;20034;-72
2021/05/29 12:23:29;;;;;;;7.90;3.58;;;14.80;99.90;;;;;;4988543;28;20029;-74
2021/05/29 12:25:54;;;;;;;6.95;3.55;;;14.90;99.90;;;;;;4988054;28;20110;-73
2021/05/29 12:28:23;;;;;;;6.88;3.75;;;14.90;99.90;;;;;;4988084;28;20049;-71
2021/05/29 12:30:53;;;;;;;5.53;3.35;;;14.90;99.90;;;;;;4988354;28;20086;-73
2021/05/29 12:33:23;;;;;;;12.27;3.45;;;14.90;99.90;;;;;;4988149;28;20038;-75
2021/05/29 12:36:03;;;;;;;5.85;3.17;;;14.90;99.90;;;;;;4988701;28;20030;-71
2021/05/29 12:38:29;;;;;;;7.43;3.63;;;14.80;99.90;;;;;;4988352;28;20027;-73
2021/05/29 12:41:12;;;;;;;9.65;4.28;;;14.80;99.90;;;;;;5002877;28;20041;-75
2021/05/29 12:43:41;;;;;;;5.18;3.00;;;14.70;99.90;;;;;;4987764;28;20122;-73
2021/05/29 12:46:21;;;;;;;11.63;3.15;;;14.70;99.90;;;;;;5003246;28;20073;-71
2021/05/29 12:49:06;;;;;;;8.18;3.35;;;14.60;99.90;;;;;;4987794;28;20071;-74
2021/05/29 12:51:52;;;;;;;6.93;3.67;;;14.60;99.90;;;;;;4987984;28;20027;-74
2021/05/29 12:54:20;;;;;;;5.30;3.28;;;14.80;99.90;;;;;;4987293;28;20459;-73
2021/05/29 12:56:56;;;;;;;5.00;3.13;;;14.90;99.90;;;;;;4987525;28;20054;-74
2021/05/29 12:59:29;;;;;;;5.75;3.53;;;15.10;99.90;;;;;;4987917;28;20042;-75
2021/05/29 13:07:40;;;;;;;7.18;3.38;;;15.40;99.90;;;;;;4987334;28;19937;-73
2021/05/29 13:12:59;;;;;;;7.25;3.35;;;15.40;99.90;;;;;;4987858;28;20046;-71
2021/05/29 13:15:25;;;;;;;4.82;2.83;;;15.40;99.90;;;;;;4986923;28;20038;-71
2021/05/29 13:18:14;;;;;;;8.25;3.38;;;15.40;99.90;;;;;;4987300;28;20051;-72
2021/05/29 13:20:41;;;;;;;5.15;3.17;;;15.40;99.90;;;;;;4985932;28;20066;-72
2021/05/29 13:23:08;;;;;;;6.97;2.78;;;15.50;99.90;;;;;;4986932;28;20038;-70